createdAt,value
2023-03-10T00:00:50.866Z,99.99
2023-03-10T00:01:50.865Z,99.99
2023-03-10T00:02:50.849Z,99.99
2023-03-10T00:03:50.847Z,99.99
2023-03-10T00:04:57.122Z,99.99
2023-03-10T00:05:50.933Z,99.99
2023-03-10T00:06:50.810Z,99.99
2023-03-10T00:07:50.806Z,99.99
2023-03-10T00:08:50.799Z,99.99
2023-03-10T00:09:50.822Z,99.99
2023-03-10T00:10:50.962Z,99.99
2023-03-10T00:12:33.577Z,99.99
2023-03-10T00:13:33.776Z,99.99
2023-03-10T00:14:33.552Z,99.99
2023-03-10T00:15:33.632Z,99.99
2023-03-10T00:16:33.535Z,99.99
2023-03-10T00:17:39.519Z,99.99
2023-03-10T00:18:33.525Z,99.99
2023-03-10T00:19:33.705Z,99.99
2023-03-10T00:20:39.510Z,99.99
2023-03-10T00:21:33.481Z,99.99
2023-03-10T00:22:33.474Z,99.99
2023-03-10T00:23:35.694Z,99.99
2023-03-10T00:24:39.459Z,99.99
2023-03-10T00:25:33.458Z,99.99
2023-03-10T00:26:33.431Z,99.99
2023-03-10T00:27:33.408Z,99.99
2023-03-10T00:28:33.424Z,99.99
2023-03-10T00:29:33.394Z,99.99
2023-03-10T00:30:33.393Z,99.99
2023-03-10T00:31:39.454Z,99.99
2023-03-10T00:32:33.447Z,99.99
2023-03-10T00:33:39.355Z,99.99
2023-03-10T00:34:33.352Z,99.99
2023-03-10T00:35:33.376Z,99.99
2023-03-10T00:36:33.529Z,99.99
2023-03-10T00:37:33.520Z,99.99
2023-03-10T00:38:33.324Z,99.99
2023-03-10T00:39:33.295Z,99.99
2023-03-10T00:40:33.297Z,99.99
2023-03-10T00:41:33.292Z,99.99
2023-03-10T00:42:33.273Z,99.99
2023-03-10T00:43:33.253Z,99.99
2023-03-10T00:44:33.254Z,99.99
2023-03-10T00:45:33.232Z,99.99
2023-03-10T00:46:33.492Z,99.99
2023-03-10T00:47:33.208Z,99.99
2023-03-10T00:48:33.213Z,99.99
2023-03-10T00:49:33.196Z,99.99
2023-03-10T00:50:33.184Z,99.99
2023-03-10T00:51:33.168Z,99.99
2023-03-10T00:52:33.195Z,99.99
2023-03-10T00:53:33.149Z,99.99
2023-03-10T00:54:33.147Z,99.99
2023-03-10T00:55:33.141Z,99.99
2023-03-10T00:56:33.125Z,99.99
2023-03-10T00:57:33.133Z,99.99
2023-03-10T00:58:33.102Z,99.99
2023-03-10T00:59:47.771Z,99.99
2023-03-10T01:00:34.116Z,99.99
2023-03-10T01:01:33.142Z,99.99
2023-03-10T01:02:33.065Z,99.99
2023-03-10T01:03:33.045Z,99.99
2023-03-10T01:04:33.087Z,99.99
2023-03-10T01:05:33.024Z,99.99
2023-03-10T01:06:33.021Z,99.99
2023-03-10T01:07:33.024Z,99.99
2023-03-10T01:08:39.010Z,99.99
2023-03-10T01:09:32.984Z,99.99
2023-03-10T01:10:32.996Z,99.99
2023-03-10T01:11:32.964Z,99.99
2023-03-10T01:12:32.960Z,99.99
2023-03-10T01:13:32.971Z,99.99
2023-03-10T01:14:32.937Z,99.99
2023-03-10T01:15:32.915Z,99.99
2023-03-10T01:16:33.043Z,99.99
2023-03-10T01:17:33.105Z,99.99
2023-03-10T01:18:32.898Z,99.99
2023-03-10T01:19:33.109Z,99.99
2023-03-10T01:20:32.875Z,99.99
2023-03-10T01:21:32.853Z,99.99
2023-03-10T01:22:33.051Z,99.99
2023-03-10T01:23:32.837Z,99.99
2023-03-10T01:24:32.822Z,99.99
2023-03-10T01:25:32.815Z,99.99
2023-03-10T01:26:32.819Z,99.99
2023-03-10T01:27:32.789Z,99.99
2023-03-10T01:28:32.787Z,99.99
2023-03-10T01:29:32.792Z,99.99
2023-03-10T01:30:32.769Z,99.99
2023-03-10T01:31:32.820Z,99.99
2023-03-10T01:32:32.862Z,99.99
2023-03-10T01:33:32.733Z,99.99
2023-03-10T01:34:32.730Z,99.99
2023-03-10T01:35:32.808Z,99.99
2023-03-10T01:36:32.707Z,99.99
2023-03-10T01:37:32.691Z,99.99
2023-03-10T01:38:32.701Z,99.99
2023-03-10T01:39:32.668Z,99.99
2023-03-10T01:41:32.642Z,99.99
2023-03-10T01:42:32.640Z,99.99
2023-03-10T01:43:32.626Z,99.99
2023-03-10T01:44:32.621Z,99.99
2023-03-10T01:49:32.567Z,99.99
2023-03-10T01:55:07.377Z,99.99
2023-03-10T01:56:07.363Z,99.99
2023-03-10T02:09:07.225Z,99.99
2023-03-10T02:10:07.201Z,99.99
2023-03-10T02:11:13.417Z,99.99
2023-03-10T02:15:49.930Z,99.99
2023-03-10T02:16:49.928Z,99.99
2023-03-10T02:19:49.882Z,99.99
2023-03-10T02:20:49.864Z,99.99
2023-03-10T02:21:49.852Z,99.99
2023-03-10T02:22:49.840Z,99.99
2023-03-10T02:24:00.451Z,99.99
2023-03-10T02:24:50.859Z,99.99
2023-03-10T02:26:50.012Z,99.99
2023-03-10T02:28:49.778Z,99.99
2023-03-10T02:30:50.804Z,99.99
2023-03-10T02:31:49.771Z,99.99
2023-03-10T02:32:49.930Z,99.99
2023-03-10T02:38:49.676Z,99.99
2023-03-10T02:39:49.659Z,99.99
2023-03-10T02:40:49.660Z,99.99
2023-03-10T02:41:49.641Z,99.99
2023-03-10T02:42:49.634Z,99.99
2023-03-10T02:43:51.688Z,99.99
2023-03-10T02:49:49.776Z,99.99
2023-03-10T02:50:49.554Z,99.99
2023-03-10T02:51:49.539Z,99.99
2023-03-10T02:52:49.525Z,99.99
2023-03-10T02:53:49.521Z,99.99
2023-03-10T02:54:49.500Z,99.99
2023-03-10T02:56:49.492Z,99.99
2023-03-10T02:57:49.480Z,99.99
2023-03-10T02:58:49.461Z,99.99
2023-03-10T03:01:49.434Z,99.99
2023-03-10T03:03:51.525Z,99.99
2023-03-10T03:04:49.428Z,99.99
2023-03-10T03:06:49.381Z,99.99
2023-03-10T03:07:49.375Z,99.99
2023-03-10T03:09:49.351Z,99.99
2023-03-10T03:10:49.342Z,99.99
2023-03-10T03:11:49.315Z,99.99
2023-03-10T03:12:49.335Z,99.99
2023-03-10T03:13:55.512Z,99.99
2023-03-10T03:14:49.301Z,99.99
2023-03-10T03:15:55.293Z,99.99
2023-03-10T03:16:49.363Z,99.99
2023-03-10T03:18:49.257Z,99.99
2023-03-10T03:19:49.238Z,99.99
2023-03-10T03:20:49.586Z,99.99
2023-03-10T03:21:49.229Z,99.99
2023-03-10T03:22:49.419Z,99.99
2023-03-10T03:24:49.192Z,99.99
2023-03-10T03:25:49.188Z,99.99
2023-03-10T03:26:49.175Z,99.99
2023-03-10T03:27:49.155Z,99.99
2023-03-10T03:28:49.150Z,99.99
2023-03-10T03:29:49.132Z,99.99
2023-03-10T03:30:49.150Z,99.99
2023-03-10T03:31:49.166Z,99.99
2023-03-10T03:32:49.175Z,99.99
2023-03-10T03:33:49.091Z,99.99
2023-03-10T03:34:49.285Z,99.99
2023-03-10T03:35:49.219Z,99.99
2023-03-10T03:36:49.084Z,99.99
2023-03-10T03:37:49.046Z,99.99
2023-03-10T03:38:49.054Z,99.99
2023-03-10T03:39:49.288Z,99.99
2023-03-10T03:40:49.028Z,99.99
2023-03-10T03:41:49.030Z,99.99
2023-03-10T03:42:49.021Z,99.99
2023-03-10T03:43:48.985Z,99.99
2023-03-10T03:44:48.989Z,99.99
2023-03-10T03:45:48.989Z,99.99
2023-03-10T03:46:49.191Z,99.99
2023-03-10T03:47:48.949Z,99.99
2023-03-10T03:48:48.935Z,99.99
2023-03-10T03:49:48.931Z,99.99
2023-03-10T03:51:48.898Z,99.99
2023-03-10T03:53:48.894Z,99.99
2023-03-10T03:54:48.885Z,99.99
2023-03-10T03:55:49.059Z,99.99
2023-03-10T03:57:54.845Z,99.99
2023-03-10T03:58:48.844Z,99.99
2023-03-10T03:59:48.816Z,99.99
2023-03-10T04:01:48.796Z,99.99
2023-03-10T04:02:48.941Z,99.99
2023-03-10T04:03:54.916Z,99.99
2023-03-10T04:04:48.778Z,99.99
2023-03-10T04:05:48.860Z,99.99
2023-03-10T04:06:48.753Z,99.99
2023-03-10T04:07:48.734Z,99.99
2023-03-10T04:08:48.759Z,99.99
2023-03-10T04:09:48.914Z,99.99
2023-03-10T04:10:48.718Z,99.99
2023-03-10T04:13:48.672Z,99.99
2023-03-10T04:14:48.871Z,99.99
2023-03-10T04:15:48.780Z,99.99
2023-03-10T04:16:48.660Z,99.99
2023-03-10T04:17:48.643Z,99.99
2023-03-10T04:18:48.634Z,99.99
2023-03-10T04:21:48.600Z,99.99
2023-03-10T04:22:48.577Z,99.99
2023-03-10T04:24:48.572Z,99.99
2023-03-10T04:30:48.571Z,99.99
2023-03-10T04:32:04.059Z,99.99
2023-03-10T04:32:49.600Z,99.99
2023-03-10T04:33:48.470Z,99.99
2023-03-10T04:36:48.445Z,99.99
2023-03-10T04:37:48.422Z,99.99
2023-03-10T04:38:48.422Z,99.99
2023-03-10T04:39:48.423Z,99.99
2023-03-10T05:05:48.323Z,99.99
2023-03-10T05:07:48.103Z,99.99
2023-03-10T05:12:47.075Z,99.99
2023-03-10T05:14:47.055Z,99.99
2023-03-10T05:15:47.057Z,99.99
2023-03-10T05:16:47.040Z,99.99
2023-03-10T05:18:47.030Z,99.99
2023-03-10T05:19:47.009Z,99.99
2023-03-10T05:20:46.997Z,99.99
2023-03-10T05:21:46.974Z,99.99
2023-03-10T05:22:52.982Z,99.99
2023-03-10T05:23:46.951Z,99.99
2023-03-10T05:24:46.956Z,99.99
2023-03-10T05:25:46.932Z,99.99
2023-03-10T05:26:46.925Z,99.99
2023-03-10T05:27:46.941Z,99.99
2023-03-10T05:28:46.910Z,99.99
2023-03-10T05:29:52.899Z,99.99
2023-03-10T05:43:46.718Z,99.99
2023-03-10T05:44:46.896Z,99.99
2023-03-10T05:45:46.881Z,99.99
2023-03-10T05:46:52.777Z,99.99
2023-03-10T05:47:46.683Z,99.99
2023-03-10T05:49:46.648Z,99.99
2023-03-10T05:50:46.618Z,99.99
2023-03-10T05:51:46.610Z,99.99
2023-03-10T05:52:46.601Z,99.99
2023-03-10T05:53:46.603Z,99.99
2023-03-10T05:54:46.589Z,99.99
2023-03-10T05:55:46.575Z,99.99
2023-03-10T05:56:52.765Z,99.99
2023-03-10T05:57:46.553Z,99.99
2023-03-10T05:58:46.529Z,99.99
2023-03-10T05:59:46.562Z,99.99
2023-03-10T06:00:46.517Z,99.99
2023-03-10T06:01:52.529Z,99.99
2023-03-10T06:02:46.556Z,99.99
2023-03-10T06:03:46.676Z,99.99
2023-03-10T06:04:46.469Z,99.99
2023-03-10T06:05:46.478Z,99.99
2023-03-10T06:06:46.464Z,99.99
2023-03-10T06:08:21.145Z,99.99
2023-03-10T06:09:23.176Z,99.99
2023-03-10T06:10:21.123Z,99.99
2023-03-10T06:11:21.123Z,99.99
2023-03-10T06:12:21.305Z,99.99
2023-03-10T06:13:23.144Z,99.99
2023-03-10T06:14:21.077Z,99.99
2023-03-10T06:15:21.087Z,99.99
2023-03-10T06:16:21.137Z,99.99
2023-03-10T06:17:21.043Z,99.99
2023-03-10T06:18:21.047Z,99.99
2023-03-10T06:19:21.025Z,99.99
2023-03-10T06:20:21.003Z,99.99
2023-03-10T06:21:21.014Z,99.99
2023-03-10T06:22:20.982Z,99.99
2023-03-10T06:23:20.981Z,99.99
2023-03-10T06:24:20.964Z,99.99
2023-03-10T06:25:20.977Z,99.99
2023-03-10T06:26:20.940Z,99.99
2023-03-10T06:27:21.138Z,99.99
2023-03-10T06:28:20.918Z,99.99
2023-03-10T06:29:20.919Z,99.99
2023-03-10T06:30:26.928Z,99.99
2023-03-10T06:31:20.989Z,99.99
2023-03-10T06:32:20.911Z,99.99
2023-03-10T06:33:20.881Z,99.99
2023-03-10T06:34:20.865Z,99.99
2023-03-10T06:35:20.849Z,99.99
2023-03-10T06:36:20.949Z,99.99
2023-03-10T06:37:20.843Z,99.99
2023-03-10T06:38:59.704Z,99.99
2023-03-10T06:39:59.683Z,99.99
2023-03-10T06:40:59.689Z,99.99
2023-03-10T06:41:59.656Z,99.99
2023-03-10T06:42:59.654Z,99.99
2023-03-10T06:43:59.636Z,99.99
2023-03-10T06:44:59.630Z,99.99
2023-03-10T06:45:59.714Z,99.99
2023-03-10T06:46:59.613Z,99.99
2023-03-10T06:47:59.599Z,99.99
2023-03-10T06:48:59.679Z,99.99
2023-03-10T06:49:59.572Z,99.99
2023-03-10T06:50:59.564Z,99.99
2023-03-10T06:51:59.752Z,99.99
2023-03-10T06:52:59.540Z,99.99
2023-03-10T06:53:59.531Z,99.99
2023-03-10T06:54:59.526Z,99.99
2023-03-10T06:55:59.511Z,99.99
2023-03-10T06:56:59.500Z,99.99
2023-03-10T06:58:42.396Z,99.99
2023-03-10T06:59:42.194Z,99.99
2023-03-10T07:00:42.175Z,99.99
2023-03-10T07:01:42.188Z,99.99
2023-03-10T07:02:48.149Z,99.99
2023-03-10T07:03:43.754Z,99.99
2023-03-10T07:05:20.841Z,99.99
2023-03-10T07:06:20.867Z,99.99
2023-03-10T07:07:20.999Z,99.99
2023-03-10T07:08:20.798Z,99.99
2023-03-10T07:09:20.777Z,99.99
2023-03-10T07:10:20.979Z,99.99
2023-03-10T07:11:26.776Z,99.99
2023-03-10T07:12:20.757Z,99.99
2023-03-10T07:13:20.757Z,99.99
2023-03-10T07:14:20.735Z,99.99
2023-03-10T07:15:20.716Z,99.99
2023-03-10T07:16:20.758Z,99.99
2023-03-10T07:17:20.723Z,99.99
2023-03-10T07:18:20.684Z,99.99
2023-03-10T07:19:20.672Z,99.99
2023-03-10T07:20:20.668Z,99.99
2023-03-10T07:21:20.669Z,99.99
2023-03-10T07:22:20.658Z,99.99
2023-03-10T07:23:20.628Z,99.99
2023-03-10T07:24:20.828Z,99.99
2023-03-10T07:25:20.804Z,99.99
2023-03-10T07:26:20.602Z,99.99
2023-03-10T07:27:20.577Z,99.99
2023-03-10T07:28:20.598Z,99.99
2023-03-10T07:29:20.561Z,99.99
2023-03-10T07:30:20.559Z,99.99
2023-03-10T07:31:20.576Z,99.99
2023-03-10T07:32:20.629Z,99.99
2023-03-10T07:33:20.549Z,99.99
2023-03-10T07:34:20.515Z,99.99
2023-03-10T07:35:20.494Z,99.99
2023-03-10T07:36:20.575Z,99.99
2023-03-10T07:37:20.470Z,99.99
2023-03-10T07:38:20.675Z,99.99
2023-03-10T07:39:20.457Z,99.99
2023-03-10T07:40:20.449Z,99.99
2023-03-10T07:41:20.433Z,99.99
2023-03-10T07:42:20.425Z,99.99
2023-03-10T07:43:20.407Z,99.99
2023-03-10T07:44:22.459Z,99.99
2023-03-10T07:45:20.406Z,99.99
2023-03-10T07:46:20.430Z,99.99
2023-03-10T07:47:20.403Z,99.99
2023-03-10T07:48:20.357Z,99.99
2023-03-10T07:49:22.321Z,99.99
2023-03-10T07:50:20.335Z,99.99
2023-03-10T07:51:20.340Z,99.99
2023-03-10T07:52:20.324Z,99.99
2023-03-10T07:53:20.316Z,99.99
2023-03-10T07:54:20.496Z,99.99
2023-03-10T07:55:20.293Z,99.99
2023-03-10T07:56:20.285Z,99.99
2023-03-10T07:57:20.273Z,99.99
2023-03-10T07:58:20.265Z,99.99
2023-03-10T07:59:20.445Z,99.99
2023-03-10T08:00:20.277Z,99.99
2023-03-10T08:01:20.236Z,99.99
2023-03-10T08:02:26.225Z,99.99
2023-03-10T08:03:20.233Z,99.99
2023-03-10T08:04:20.428Z,99.99
2023-03-10T08:05:20.303Z,99.99
2023-03-10T08:06:20.167Z,99.99
2023-03-10T08:07:20.167Z,99.99
2023-03-10T08:08:26.753Z,99.99
2023-03-10T08:09:20.344Z,99.99
2023-03-10T08:10:20.135Z,99.99
2023-03-10T08:11:20.120Z,99.99
2023-03-10T08:12:20.304Z,99.99
2023-03-10T08:13:20.140Z,99.99
2023-03-10T08:14:21.146Z,99.99
2023-03-10T08:15:26.287Z,99.99
2023-03-10T08:16:20.107Z,99.99
2023-03-10T08:17:20.058Z,99.99
2023-03-10T08:18:20.046Z,99.99
2023-03-10T08:19:20.083Z,99.99
2023-03-10T08:20:26.044Z,99.99
2023-03-10T08:21:26.021Z,99.99
2023-03-10T08:22:22.310Z,99.99
2023-03-10T08:23:26.000Z,99.99
2023-03-10T08:24:19.979Z,99.99
2023-03-10T08:25:19.968Z,99.99
2023-03-10T08:26:19.948Z,99.99
2023-03-10T08:27:19.964Z,99.99
2023-03-10T08:28:19.980Z,99.99
2023-03-10T08:29:19.933Z,99.99
2023-03-10T08:30:25.927Z,99.99
2023-03-10T08:31:20.096Z,99.99
2023-03-10T08:32:20.175Z,99.99
2023-03-10T08:33:19.885Z,99.99
2023-03-10T08:34:19.868Z,99.99
2023-03-10T08:35:19.888Z,99.99
2023-03-10T08:36:19.914Z,99.99
2023-03-10T08:37:19.846Z,99.99
2023-03-10T08:38:20.020Z,99.99
2023-03-10T08:39:19.811Z,99.99
2023-03-10T08:40:25.954Z,99.99
2023-03-10T08:41:25.815Z,99.99
2023-03-10T08:42:19.782Z,99.99
2023-03-10T08:43:19.779Z,99.99
2023-03-10T08:44:19.794Z,99.99
2023-03-10T08:45:19.955Z,99.99
2023-03-10T08:46:19.773Z,99.99
2023-03-10T08:47:29.277Z,99.99
2023-03-10T08:48:19.721Z,99.99
2023-03-10T08:49:19.731Z,99.99
2023-03-10T08:50:19.705Z,99.99
2023-03-10T08:51:19.704Z,99.99
2023-03-10T08:52:19.714Z,99.99
2023-03-10T08:53:19.674Z,99.99
2023-03-10T08:54:19.669Z,99.99
2023-03-10T08:55:19.665Z,99.99
2023-03-10T08:56:19.629Z,99.99
2023-03-10T08:57:19.637Z,99.99
2023-03-10T08:58:19.615Z,99.99
2023-03-10T08:59:19.596Z,99.99
2023-03-10T09:00:19.595Z,99.99
2023-03-10T09:01:19.587Z,98.38
2023-03-10T09:02:19.642Z,97.10
2023-03-10T09:03:19.619Z,98.32
2023-03-10T09:04:19.544Z,97.66
2023-03-10T09:05:21.800Z,97.09
2023-03-10T09:06:19.529Z,98.92
2023-03-10T09:07:19.523Z,99.99
2023-03-10T09:08:19.526Z,99.99
2023-03-10T09:09:19.500Z,99.99
2023-03-10T09:10:19.479Z,99.99
2023-03-10T09:11:19.478Z,99.99
2023-03-10T09:12:19.466Z,99.94
2023-03-10T09:13:19.470Z,99.99
2023-03-10T09:14:19.430Z,99.99
2023-03-10T09:15:19.445Z,99.99
2023-03-10T09:16:19.480Z,99.99
2023-03-10T09:17:19.418Z,99.99
2023-03-10T09:18:19.395Z,99.99
2023-03-10T09:19:19.389Z,99.99
2023-03-10T09:20:19.400Z,99.99
2023-03-10T09:21:19.405Z,99.99
2023-03-10T09:22:19.344Z,99.99
2023-03-10T09:23:19.364Z,99.99
2023-03-10T09:24:19.384Z,99.99
2023-03-10T09:25:19.333Z,99.99
2023-03-10T09:26:19.313Z,99.99
2023-03-10T09:27:19.311Z,99.99
2023-03-10T09:28:19.297Z,99.99
2023-03-10T09:29:20.349Z,99.99
2023-03-10T09:30:19.271Z,99.99
2023-03-10T09:31:19.336Z,99.99
2023-03-10T09:32:19.384Z,99.99
2023-03-10T09:33:19.243Z,99.99
2023-03-10T09:34:19.216Z,99.99
2023-03-10T09:35:19.248Z,99.99
2023-03-10T09:36:19.242Z,99.99
2023-03-10T09:37:19.216Z,99.99
2023-03-10T09:38:19.179Z,99.99
2023-03-10T09:39:19.173Z,99.99
2023-03-10T09:40:19.193Z,99.99
2023-03-10T09:41:19.163Z,99.99
2023-03-10T09:42:29.195Z,99.99
2023-03-10T09:43:20.370Z,99.99
2023-03-10T09:44:19.116Z,99.99
2023-03-10T09:45:25.130Z,99.99
2023-03-10T09:46:19.150Z,99.99
2023-03-10T09:47:20.227Z,99.99
2023-03-10T09:48:19.091Z,99.99
2023-03-10T09:49:19.075Z,99.94
2023-03-10T09:50:19.046Z,99.99
2023-03-10T09:51:19.049Z,99.99
2023-03-10T09:52:19.027Z,99.99
2023-03-10T09:53:19.023Z,98.98
2023-03-10T09:54:19.005Z,97.96
2023-03-10T09:55:19.005Z,99.09
2023-03-10T09:56:19.005Z,99.13
2023-03-10T09:57:18.998Z,98.46
2023-03-10T09:58:18.987Z,99.18
2023-03-10T09:59:18.956Z,99.84
2023-03-10T10:00:18.951Z,99.99
2023-03-10T10:01:18.938Z,99.99
2023-03-10T10:02:18.925Z,99.99
2023-03-10T10:03:19.005Z,99.99
2023-03-10T10:04:24.928Z,99.99
2023-03-10T10:05:19.015Z,99.99
2023-03-10T10:06:18.877Z,99.99
2023-03-10T10:07:18.869Z,99.99
2023-03-10T10:08:18.853Z,99.99
2023-03-10T10:09:18.849Z,99.99
2023-03-10T10:10:18.829Z,99.99
2023-03-10T10:11:18.827Z,99.99
2023-03-10T10:12:18.847Z,99.99
2023-03-10T10:13:24.809Z,99.99
2023-03-10T10:14:28.451Z,99.99
2023-03-10T10:15:18.798Z,99.99
2023-03-10T10:16:33.583Z,99.99
2023-03-10T10:17:19.971Z,99.99
2023-03-10T10:18:20.891Z,99.99
2023-03-10T10:19:18.737Z,99.99
2023-03-10T10:20:18.735Z,99.99
2023-03-10T10:21:18.720Z,99.99
2023-03-10T10:22:18.699Z,99.99
2023-03-10T10:23:18.697Z,99.99
2023-03-10T10:24:18.676Z,99.99
2023-03-10T10:25:18.693Z,99.99
2023-03-10T10:26:18.660Z,99.99
2023-03-10T10:27:20.692Z,99.99
2023-03-10T10:28:18.652Z,99.99
2023-03-10T10:29:18.643Z,99.99
2023-03-10T10:30:18.617Z,99.99
2023-03-10T10:31:18.673Z,99.99
2023-03-10T10:32:18.647Z,99.99
2023-03-10T10:33:18.585Z,99.99
2023-03-10T10:34:19.685Z,99.99
2023-03-10T10:35:18.575Z,99.99
2023-03-10T10:36:18.681Z,99.99
2023-03-10T10:37:18.548Z,99.99
2023-03-10T10:38:18.534Z,99.99
2023-03-10T10:39:18.518Z,99.99
2023-03-10T10:40:18.534Z,99.99
2023-03-10T10:41:18.503Z,99.99
2023-03-10T10:42:18.490Z,99.99
2023-03-10T10:43:18.484Z,99.99
2023-03-10T10:44:18.526Z,99.99
2023-03-10T10:45:18.454Z,99.99
2023-03-10T10:46:18.529Z,99.99
2023-03-10T10:47:18.435Z,99.99
2023-03-10T10:48:18.431Z,99.99
2023-03-10T10:49:18.427Z,99.99
2023-03-10T10:50:18.830Z,99.99
2023-03-10T10:51:18.395Z,99.99
2023-03-10T10:52:18.398Z,99.99
2023-03-10T10:53:18.370Z,99.99
2023-03-10T10:54:18.373Z,99.99
2023-03-10T10:55:18.345Z,99.99
2023-03-10T10:56:18.372Z,99.99
2023-03-10T10:57:18.358Z,99.99
2023-03-10T10:58:24.526Z,99.99
2023-03-10T10:59:18.333Z,99.99
2023-03-10T11:00:18.328Z,99.99
2023-03-10T11:01:18.339Z,99.99
2023-03-10T11:02:18.345Z,99.99
2023-03-10T11:03:18.277Z,99.99
2023-03-10T11:04:18.260Z,99.99
2023-03-10T11:05:18.237Z,99.99
2023-03-10T11:06:18.262Z,99.99
2023-03-10T11:07:18.218Z,99.99
2023-03-10T11:08:18.221Z,99.99
2023-03-10T11:09:18.391Z,99.99
2023-03-10T11:10:18.211Z,99.99
2023-03-10T11:11:18.179Z,99.99
2023-03-10T11:12:18.173Z,99.99
2023-03-10T11:13:18.153Z,99.99
2023-03-10T11:14:18.157Z,99.99
2023-03-10T11:15:18.145Z,99.99
2023-03-10T11:16:18.248Z,99.99
2023-03-10T11:17:18.107Z,99.99
2023-03-10T11:18:18.127Z,99.99
2023-03-10T11:19:18.089Z,99.99
2023-03-10T11:20:18.094Z,99.99
2023-03-10T11:21:18.062Z,99.99
2023-03-10T11:22:18.064Z,99.99
2023-03-10T11:23:18.061Z,99.99
2023-03-10T11:24:18.048Z,99.99
2023-03-10T11:25:18.097Z,99.99
2023-03-10T11:26:18.044Z,99.99
2023-03-10T11:27:18.008Z,99.99
2023-03-10T11:28:18.011Z,99.99
2023-03-10T11:29:18.061Z,99.99
2023-03-10T11:30:17.992Z,99.99
2023-03-10T11:31:18.047Z,99.99
2023-03-10T11:32:18.051Z,99.99
2023-03-10T11:33:17.957Z,99.99
2023-03-10T11:34:17.936Z,99.99
2023-03-10T11:35:17.916Z,99.99
2023-03-10T11:36:17.990Z,99.99
2023-03-10T11:37:17.895Z,99.99
2023-03-10T11:38:17.921Z,99.99
2023-03-10T11:39:17.879Z,99.99
2023-03-10T11:40:17.874Z,99.99
2023-03-10T11:41:17.845Z,99.99
2023-03-10T11:42:17.861Z,99.99
2023-03-10T11:43:17.832Z,99.99
2023-03-10T11:44:17.822Z,99.99
2023-03-10T11:45:17.816Z,99.99
2023-03-10T11:46:17.883Z,99.99
2023-03-10T11:47:17.778Z,99.99
2023-03-10T11:48:17.812Z,99.99
2023-03-10T11:49:17.758Z,99.99
2023-03-10T11:50:17.940Z,99.99
2023-03-10T11:51:17.738Z,99.99
2023-03-10T11:52:17.748Z,99.99
2023-03-10T11:53:17.716Z,99.99
2023-03-10T11:54:17.729Z,99.99
2023-03-10T11:55:17.706Z,99.99
2023-03-10T11:56:17.699Z,99.99
2023-03-10T11:57:17.692Z,99.99
2023-03-10T11:58:17.677Z,99.99
2023-03-10T11:59:17.666Z,99.99
2023-03-10T12:00:17.739Z,99.99
2023-03-10T12:01:17.633Z,99.99
2023-03-10T12:02:17.642Z,99.99
2023-03-10T12:03:23.720Z,99.99
2023-03-10T12:04:17.606Z,99.99
2023-03-10T12:05:17.660Z,99.68
2023-03-10T12:06:17.595Z,99.99
2023-03-10T12:07:23.600Z,99.99
2023-03-10T12:08:17.571Z,99.99
2023-03-10T12:09:17.543Z,99.99
2023-03-10T12:10:17.688Z,99.99
2023-03-10T12:11:17.522Z,99.89
2023-03-10T12:12:17.523Z,99.28
2023-03-10T12:13:17.514Z,98.77
2023-03-10T12:14:17.499Z,98.82
2023-03-10T12:15:17.477Z,98.11
2023-03-10T12:16:17.615Z,98.62
2023-03-10T12:17:17.483Z,98.62
2023-03-10T12:18:17.455Z,98.21
2023-03-10T12:19:23.554Z,99.19
2023-03-10T12:20:17.643Z,97.96
2023-03-10T12:21:17.416Z,95.71
2023-03-10T12:22:17.421Z,96.88
2023-03-10T12:23:17.389Z,97.43
2023-03-10T12:24:17.386Z,97.68
2023-03-10T12:25:17.367Z,98.24
2023-03-10T12:26:17.371Z,99.06
2023-03-10T12:27:17.350Z,99.99
2023-03-10T12:28:17.468Z,99.52
2023-03-10T12:29:23.335Z,99.48
2023-03-10T12:30:17.324Z,99.99
2023-03-10T12:31:17.619Z,98.41
2023-03-10T12:32:17.380Z,98.30
2023-03-10T12:33:17.283Z,97.43
2023-03-10T12:34:17.281Z,98.25
2023-03-10T12:35:17.488Z,98.70
2023-03-10T12:36:17.327Z,96.40
2023-03-10T12:37:17.242Z,97.73
2023-03-10T12:38:17.234Z,97.63
2023-03-10T12:39:17.421Z,97.47
2023-03-10T12:40:17.217Z,96.14
2023-03-10T12:41:17.189Z,96.18
2023-03-10T12:42:17.197Z,96.69
2023-03-10T12:43:17.184Z,97.92
2023-03-10T12:44:17.167Z,98.74
2023-03-10T12:45:23.163Z,97.86
2023-03-10T12:46:17.196Z,98.89
2023-03-10T12:47:17.130Z,99.99
2023-03-10T12:48:17.122Z,99.99
2023-03-10T12:49:17.306Z,99.99
2023-03-10T12:50:17.100Z,99.99
2023-03-10T12:51:18.501Z,99.09
2023-03-10T12:52:23.090Z,99.81
2023-03-10T12:53:17.062Z,99.24
2023-03-10T12:54:17.057Z,99.65
2023-03-10T12:55:17.104Z,99.96
2023-03-10T12:56:17.040Z,99.55
2023-03-10T12:57:17.067Z,99.85
2023-03-10T12:58:17.018Z,99.96
2023-03-10T12:59:17.043Z,99.91
2023-03-10T13:00:17.004Z,99.99
2023-03-10T13:01:17.042Z,99.99
2023-03-10T13:02:16.984Z,98.95
2023-03-10T13:03:17.033Z,99.87
2023-03-10T13:04:17.167Z,99.87
2023-03-10T13:05:16.931Z,99.15
2023-03-10T13:06:16.934Z,99.56
2023-03-10T13:07:16.971Z,99.66
2023-03-10T13:08:16.912Z,99.99
2023-03-10T13:09:17.096Z,99.97
2023-03-10T13:10:16.885Z,99.99
2023-03-10T13:11:16.870Z,99.99
2023-03-10T13:12:16.870Z,99.99
2023-03-10T13:13:18.916Z,99.96
2023-03-10T13:14:16.849Z,99.99
2023-03-10T13:15:16.838Z,99.99
2023-03-10T13:16:18.993Z,99.99
2023-03-10T13:17:16.821Z,99.99
2023-03-10T13:18:16.815Z,99.99
2023-03-10T13:19:16.795Z,99.99
2023-03-10T13:20:22.825Z,99.99
2023-03-10T13:21:16.773Z,99.99
2023-03-10T13:22:16.772Z,99.99
2023-03-10T13:23:16.770Z,99.99
2023-03-10T13:24:16.751Z,99.39
2023-03-10T13:25:16.724Z,99.99
2023-03-10T13:26:16.722Z,99.99
2023-03-10T13:27:16.712Z,99.99
2023-03-10T13:28:16.712Z,99.99
2023-03-10T13:29:22.688Z,99.99
2023-03-10T13:30:16.683Z,99.99
2023-03-10T13:31:16.774Z,99.99
2023-03-10T13:32:22.746Z,99.99
2023-03-10T13:33:16.651Z,99.99
2023-03-10T13:34:16.635Z,99.65
2023-03-10T13:35:16.621Z,99.81
2023-03-10T13:38:16.587Z,98.99
2023-03-10T13:39:25.574Z,99.91
2023-03-10T13:41:16.570Z,99.99
2023-03-10T13:42:16.543Z,99.99
2023-03-10T13:43:16.544Z,99.50
2023-03-10T13:44:16.522Z,99.96
2023-03-10T13:45:16.538Z,99.99
2023-03-10T13:46:16.630Z,99.85
2023-03-10T13:47:16.515Z,98.52
2023-03-10T13:49:16.471Z,99.24
2023-03-10T13:50:16.458Z,98.73
2023-03-10T13:51:16.472Z,98.42
2023-03-10T13:52:16.434Z,98.22
2023-03-10T13:53:16.438Z,98.42
2023-03-10T13:54:16.417Z,96.52
2023-03-10T13:55:16.442Z,96.93
2023-03-10T13:57:16.401Z,97.81
2023-03-10T13:58:16.374Z,96.13
2023-03-10T13:59:16.369Z,94.44
2023-03-10T14:00:16.352Z,96.18
2023-03-10T14:01:16.408Z,95.98
2023-03-10T14:02:16.329Z,95.06
2023-03-10T14:03:16.413Z,94.70
2023-03-10T14:04:16.312Z,94.09
2023-03-10T14:05:16.302Z,94.75
2023-03-10T14:06:22.298Z,93.06
2023-03-10T14:07:16.286Z,95.00
2023-03-10T14:08:50.973Z,96.14
2023-03-10T14:09:50.952Z,94.46
2023-03-10T14:10:50.954Z,93.31
2023-03-10T14:11:50.966Z,89.93
2023-03-10T14:12:50.919Z,85.90
2023-03-10T14:13:50.914Z,84.47
2023-03-10T14:15:56.902Z,85.57
2023-03-10T14:16:50.994Z,84.28
2023-03-10T14:17:51.102Z,85.12
2023-03-10T14:18:50.847Z,86.28
2023-03-10T14:19:50.845Z,87.04
2023-03-10T14:22:00.295Z,88.61
2023-03-10T14:22:51.851Z,90.22
2023-03-10T14:23:50.799Z,91.35
2023-03-10T14:25:56.814Z,92.66
2023-03-10T14:26:50.770Z,91.54
2023-03-10T14:27:50.760Z,91.99
2023-03-10T14:29:50.731Z,93.32
2023-03-10T14:30:50.826Z,93.01
2023-03-10T14:31:50.743Z,93.01
2023-03-10T14:32:50.907Z,92.54
2023-03-10T14:33:50.708Z,92.18
2023-03-10T14:34:50.670Z,92.77
2023-03-10T14:35:50.691Z,94.25
2023-03-10T14:36:50.657Z,94.87
2023-03-10T14:37:50.663Z,96.51
2023-03-10T14:38:50.632Z,95.94
2023-03-10T14:39:50.636Z,96.35
2023-03-10T14:40:50.611Z,96.04
2023-03-10T14:41:50.650Z,96.76
2023-03-10T14:42:50.594Z,97.21
2023-03-10T14:43:50.589Z,97.83
2023-03-10T14:44:50.571Z,97.83
2023-03-10T14:45:50.771Z,98.69
2023-03-10T14:46:50.709Z,99.01
2023-03-10T14:47:50.744Z,99.82
2023-03-10T14:48:50.527Z,99.99
2023-03-10T14:49:50.541Z,98.71
2023-03-10T14:50:50.522Z,98.81
2023-03-10T14:51:50.497Z,97.02
2023-03-10T14:52:56.548Z,95.79
2023-03-10T14:53:50.478Z,96.20
2023-03-10T14:54:50.464Z,96.00
2023-03-10T14:56:50.445Z,97.68